sensor_id;sensor_type;location;lat;lon;timestamp;P1;durP1;ratioP1;P2;durP2;ratioP2
16426;SDS011;8322;-33.900;151.170;2022-12-07T00:00:44;4.35;;;1.20;;
16426;SDS011;8322;-33.900;151.170;2022-12-07T00:03:13;3.45;;;1.38;;
16426;SDS011;8322;-33.900;151.170;2022-12-07T00:05:43;7.07;;;1.83;;
16426;SDS011;8322;-33.900;151.170;2022-12-07T00:08:12;3.75;;;1.50;;
16426;SDS011;8322;-33.900;151.170;2022-12-07T00:10:42;6.70;;;1.70;;
16426;SDS011;8322;-33.900;151.170;2022-12-07T00:13:11;6.18;;;1.85;;
16426;SDS011;8322;-33.900;151.170;2022-12-07T00:15:43;4.65;;;1.73;;
16426;SDS011;8322;-33.900;151.170;2022-12-07T00:18:13;8.13;;;2.05;;
16426;SDS011;8322;-33.900;151.170;2022-12-07T00:20:43;4.82;;;2.00;;
16426;SDS011;8322;-33.900;151.170;2022-12-07T00:23:12;8.13;;;2.35;;
16426;SDS011;8322;-33.900;151.170;2022-12-07T00:25:42;6.97;;;2.40;;
16426;SDS011;8322;-33.900;151.170;2022-12-07T00:28:11;8.93;;;2.38;;
16426;SDS011;8322;-33.900;151.170;2022-12-07T00:30:41;10.07;;;2.20;;
16426;SDS011;8322;-33.900;151.170;2022-12-07T00:33:12;6.63;;;2.13;;
16426;SDS011;8322;-33.900;151.170;2022-12-07T00:35:42;7.68;;;2.00;;
16426;SDS011;8322;-33.900;151.170;2022-12-07T00:38:11;4.75;;;1.88;;
16426;SDS011;8322;-33.900;151.170;2022-12-07T00:40:41;7.03;;;2.20;;
16426;SDS011;8322;-33.900;151.170;2022-12-07T00:43:10;8.48;;;2.33;;
16426;SDS011;8322;-33.900;151.170;2022-12-07T00:45:40;8.13;;;2.45;;
16426;SDS011;8322;-33.900;151.170;2022-12-07T00:48:10;9.98;;;2.65;;
16426;SDS011;8322;-33.900;151.170;2022-12-07T00:50:41;8.55;;;2.85;;
16426;SDS011;8322;-33.900;151.170;2022-12-07T00:53:11;6.38;;;2.13;;
16426;SDS011;8322;-33.900;151.170;2022-12-07T00:55:41;12.50;;;2.85;;
16426;SDS011;8322;-33.900;151.170;2022-12-07T00:58:10;10.40;;;2.45;;
16426;SDS011;8322;-33.900;151.170;2022-12-07T01:00:41;9.70;;;2.63;;
16426;SDS011;8322;-33.900;151.170;2022-12-07T01:03:11;8.73;;;2.50;;
16426;SDS011;8322;-33.900;151.170;2022-12-07T01:05:51;11.07;;;2.45;;
16426;SDS011;8322;-33.900;151.170;2022-12-07T01:08:21;7.90;;;2.50;;
16426;SDS011;8322;-33.900;151.170;2022-12-07T01:10:58;9.82;;;2.53;;
16426;SDS011;8322;-33.900;151.170;2022-12-07T01:13:28;9.25;;;2.60;;
16426;SDS011;8322;-33.900;151.170;2022-12-07T01:15:58;8.95;;;2.35;;
16426;SDS011;8322;-33.900;151.170;2022-12-07T01:18:28;11.02;;;2.28;;
16426;SDS011;8322;-33.900;151.170;2022-12-07T01:21:01;11.15;;;2.95;;
16426;SDS011;8322;-33.900;151.170;2022-12-07T01:23:30;7.72;;;2.72;;
16426;SDS011;8322;-33.900;151.170;2022-12-07T01:26:01;8.13;;;2.50;;
16426;SDS011;8322;-33.900;151.170;2022-12-07T01:28:31;7.45;;;2.95;;
16426;SDS011;8322;-33.900;151.170;2022-12-07T01:31:01;12.52;;;3.58;;
16426;SDS011;8322;-33.900;151.170;2022-12-07T01:33:32;10.07;;;3.25;;
16426;SDS011;8322;-33.900;151.170;2022-12-07T01:36:04;7.22;;;2.30;;
16426;SDS011;8322;-33.900;151.170;2022-12-07T01:38:35;10.18;;;3.00;;
16426;SDS011;8322;-33.900;151.170;2022-12-07T01:41:05;7.97;;;2.50;;
16426;SDS011;8322;-33.900;151.170;2022-12-07T01:43:34;8.95;;;2.97;;
16426;SDS011;8322;-33.900;151.170;2022-12-07T01:46:04;10.90;;;2.85;;
16426;SDS011;8322;-33.900;151.170;2022-12-07T01:48:34;7.68;;;3.10;;
16426;SDS011;8322;-33.900;151.170;2022-12-07T01:51:07;11.57;;;2.80;;
16426;SDS011;8322;-33.900;151.170;2022-12-07T01:53:38;9.98;;;3.33;;
16426;SDS011;8322;-33.900;151.170;2022-12-07T01:56:09;13.73;;;4.10;;
16426;SDS011;8322;-33.900;151.170;2022-12-07T01:58:40;10.02;;;2.80;;
16426;SDS011;8322;-33.900;151.170;2022-12-07T02:01:10;8.63;;;3.42;;
16426;SDS011;8322;-33.900;151.170;2022-12-07T02:03:40;11.43;;;4.10;;
16426;SDS011;8322;-33.900;151.170;2022-12-07T02:06:13;9.60;;;4.00;;
16426;SDS011;8322;-33.900;151.170;2022-12-07T02:08:45;7.22;;;2.85;;
16426;SDS011;8322;-33.900;151.170;2022-12-07T02:11:15;11.93;;;4.15;;
16426;SDS011;8322;-33.900;151.170;2022-12-07T02:13:45;10.45;;;5.43;;
16426;SDS011;8322;-33.900;151.170;2022-12-07T02:16:18;15.50;;;5.40;;
16426;SDS011;8322;-33.900;151.170;2022-12-07T02:18:55;14.25;;;4.35;;
16426;SDS011;8322;-33.900;151.170;2022-12-07T02:21:31;9.68;;;3.03;;
16426;SDS011;8322;-33.900;151.170;2022-12-07T02:24:13;10.55;;;3.25;;
16426;SDS011;8322;-33.900;151.170;2022-12-07T02:27:06;17.08;;;5.47;;
16426;SDS011;8322;-33.900;151.170;2022-12-07T02:29:41;13.68;;;4.10;;
16426;SDS011;8322;-33.900;151.170;2022-12-07T02:32:15;13.73;;;4.20;;
16426;SDS011;8322;-33.900;151.170;2022-12-07T02:34:47;11.95;;;4.65;;
16426;SDS011;8322;-33.900;151.170;2022-12-07T02:37:19;13.27;;;4.43;;
16426;SDS011;8322;-33.900;151.170;2022-12-07T02:39:50;9.30;;;3.60;;
16426;SDS011;8322;-33.900;151.170;2022-12-07T02:42:23;11.27;;;3.70;;
16426;SDS011;8322;-33.900;151.170;2022-12-07T02:44:56;14.13;;;3.88;;
16426;SDS011;8322;-33.900;151.170;2022-12-07T02:47:26;11.70;;;3.55;;
16426;SDS011;8322;-33.900;151.170;2022-12-07T02:49:57;7.18;;;2.97;;
16426;SDS011;8322;-33.900;151.170;2022-12-07T02:52:26;9.40;;;4.18;;
16426;SDS011;8322;-33.900;151.170;2022-12-07T02:54:56;12.20;;;3.80;;
16426;SDS011;8322;-33.900;151.170;2022-12-07T02:57:32;9.13;;;3.63;;
16426;SDS011;8322;-33.900;151.170;2022-12-07T03:00:07;8.40;;;3.00;;
16426;SDS011;8322;-33.900;151.170;2022-12-07T03:02:41;13.32;;;3.47;;
16426;SDS011;8322;-33.900;151.170;2022-12-07T03:05:13;12.35;;;4.30;;
16426;SDS011;8322;-33.900;151.170;2022-12-07T03:07:48;9.32;;;4.00;;
16426;SDS011;8322;-33.900;151.170;2022-12-07T03:10:22;10.82;;;3.88;;
16426;SDS011;8322;-33.900;151.170;2022-12-07T03:12:55;10.98;;;3.53;;
16426;SDS011;8322;-33.900;151.170;2022-12-07T03:15:29;10.90;;;3.22;;
16426;SDS011;8322;-33.900;151.170;2022-12-07T03:18:03;13.00;;;3.50;;
16426;SDS011;8322;-33.900;151.170;2022-12-07T03:20:34;19.27;;;4.28;;
16426;SDS011;8322;-33.900;151.170;2022-12-07T03:23:04;10.90;;;3.55;;
16426;SDS011;8322;-33.900;151.170;2022-12-07T03:25:36;11.95;;;3.08;;
16426;SDS011;8322;-33.900;151.170;2022-12-07T03:28:09;6.68;;;3.10;;
16426;SDS011;8322;-33.900;151.170;2022-12-07T03:30:42;12.90;;;3.00;;
16426;SDS011;8322;-33.900;151.170;2022-12-07T03:33:15;7.80;;;2.90;;
16426;SDS011;8322;-33.900;151.170;2022-12-07T03:35:50;7.50;;;2.80;;
16426;SDS011;8322;-33.900;151.170;2022-12-07T03:38:22;8.32;;;3.13;;
16426;SDS011;8322;-33.900;151.170;2022-12-07T03:40:54;10.10;;;3.55;;
16426;SDS011;8322;-33.900;151.170;2022-12-07T03:43:24;11.32;;;3.67;;
16426;SDS011;8322;-33.900;151.170;2022-12-07T03:45:59;9.20;;;3.83;;
16426;SDS011;8322;-33.900;151.170;2022-12-07T03:48:33;9.52;;;4.53;;
16426;SDS011;8322;-33.900;151.170;2022-12-07T03:51:06;10.48;;;4.10;;
16426;SDS011;8322;-33.900;151.170;2022-12-07T03:53:39;9.43;;;3.20;;
16426;SDS011;8322;-33.900;151.170;2022-12-07T03:56:09;10.63;;;3.45;;
16426;SDS011;8322;-33.900;151.170;2022-12-07T03:58:39;11.88;;;3.70;;
16426;SDS011;8322;-33.900;151.170;2022-12-07T04:01:11;10.35;;;3.00;;
16426;SDS011;8322;-33.900;151.170;2022-12-07T04:03:41;8.60;;;2.83;;
16426;SDS011;8322;-33.900;151.170;2022-12-07T04:06:11;8.93;;;3.10;;
16426;SDS011;8322;-33.900;151.170;2022-12-07T04:08:40;11.25;;;3.80;;
16426;SDS011;8322;-33.900;151.170;2022-12-07T04:11:10;9.82;;;3.25;;
16426;SDS011;8322;-33.900;151.170;2022-12-07T04:13:39;8.43;;;2.95;;
16426;SDS011;8322;-33.900;151.170;2022-12-07T04:16:27;11.02;;;2.90;;
16426;SDS011;8322;-33.900;151.170;2022-12-07T04:18:56;8.13;;;2.78;;
16426;SDS011;8322;-33.900;151.170;2022-12-07T04:21:26;11.95;;;3.08;;
16426;SDS011;8322;-33.900;151.170;2022-12-07T04:23:55;5.40;;;2.25;;
16426;SDS011;8322;-33.900;151.170;2022-12-07T04:26:25;7.53;;;2.28;;
16426;SDS011;8322;-33.900;151.170;2022-12-07T04:28:54;6.75;;;2.80;;
16426;SDS011;8322;-33.900;151.170;2022-12-07T04:31:24;8.05;;;1.50;;
16426;SDS011;8322;-33.900;151.170;2022-12-07T04:33:55;1.85;;;0.98;;
16426;SDS011;8322;-33.900;151.170;2022-12-07T04:36:25;4.32;;;1.10;;
16426;SDS011;8322;-33.900;151.170;2022-12-07T04:38:54;3.33;;;0.90;;
16426;SDS011;8322;-33.900;151.170;2022-12-07T04:41:24;6.10;;;0.70;;
16426;SDS011;8322;-33.900;151.170;2022-12-07T04:43:54;3.33;;;1.05;;
16426;SDS011;8322;-33.900;151.170;2022-12-07T04:46:24;2.80;;;0.82;;
16426;SDS011;8322;-33.900;151.170;2022-12-07T04:48:56;1.65;;;0.60;;
16426;SDS011;8322;-33.900;151.170;2022-12-07T04:51:26;8.13;;;1.00;;
16426;SDS011;8322;-33.900;151.170;2022-12-07T04:53:56;1.85;;;1.10;;
16426;SDS011;8322;-33.900;151.170;2022-12-07T04:56:26;2.38;;;0.90;;
16426;SDS011;8322;-33.900;151.170;2022-12-07T04:58:55;1.90;;;0.85;;
16426;SDS011;8322;-33.900;151.170;2022-12-07T05:01:25;3.08;;;0.52;;
16426;SDS011;8322;-33.900;151.170;2022-12-07T05:03:56;4.47;;;1.02;;
16426;SDS011;8322;-33.900;151.170;2022-12-07T05:06:26;4.20;;;1.50;;
16426;SDS011;8322;-33.900;151.170;2022-12-07T05:08:55;2.95;;;1.10;;
16426;SDS011;8322;-33.900;151.170;2022-12-07T05:11:25;2.00;;;0.80;;
16426;SDS011;8322;-33.900;151.170;2022-12-07T05:14:07;2.03;;;0.60;;
16426;SDS011;8322;-33.900;151.170;2022-12-07T05:16:37;2.55;;;0.80;;
16426;SDS011;8322;-33.900;151.170;2022-12-07T05:19:09;1.80;;;1.10;;
16426;SDS011;8322;-33.900;151.170;2022-12-07T05:21:39;2.28;;;0.90;;
16426;SDS011;8322;-33.900;151.170;2022-12-07T05:24:09;2.47;;;1.42;;
16426;SDS011;8322;-33.900;151.170;2022-12-07T05:26:39;2.65;;;1.60;;
16426;SDS011;8322;-33.900;151.170;2022-12-07T05:29:10;3.42;;;0.98;;
16426;SDS011;8322;-33.900;151.170;2022-12-07T05:31:42;2.28;;;0.85;;
16426;SDS011;8322;-33.900;151.170;2022-12-07T05:34:14;4.70;;;1.60;;
16426;SDS011;8322;-33.900;151.170;2022-12-07T05:36:43;1.95;;;1.00;;
16426;SDS011;8322;-33.900;151.170;2022-12-07T05:39:13;2.47;;;1.38;;
16426;SDS011;8322;-33.900;151.170;2022-12-07T05:41:43;5.15;;;1.92;;
16426;SDS011;8322;-33.900;151.170;2022-12-07T05:44:29;2.72;;;1.27;;
16426;SDS011;8322;-33.900;151.170;2022-12-07T05:46:58;2.00;;;1.10;;
16426;SDS011;8322;-33.900;151.170;2022-12-07T05:49:29;5.00;;;1.80;;
16426;SDS011;8322;-33.900;151.170;2022-12-07T05:51:59;3.88;;;1.20;;
16426;SDS011;8322;-33.900;151.170;2022-12-07T05:54:29;2.28;;;1.23;;
16426;SDS011;8322;-33.900;151.170;2022-12-07T05:56:59;5.00;;;1.67;;
16426;SDS011;8322;-33.900;151.170;2022-12-07T05:59:28;2.63;;;1.20;;
16426;SDS011;8322;-33.900;151.170;2022-12-07T06:01:57;4.57;;;2.78;;
16426;SDS011;8322;-33.900;151.170;2022-12-07T06:04:29;4.60;;;2.55;;
16426;SDS011;8322;-33.900;151.170;2022-12-07T06:07:00;2.10;;;1.15;;
16426;SDS011;8322;-33.900;151.170;2022-12-07T06:09:29;3.65;;;1.67;;
16426;SDS011;8322;-33.900;151.170;2022-12-07T06:11:59;4.82;;;2.47;;
16426;SDS011;8322;-33.900;151.170;2022-12-07T06:14:45;4.53;;;1.77;;
16426;SDS011;8322;-33.900;151.170;2022-12-07T06:17:15;1.52;;;0.75;;
16426;SDS011;8322;-33.900;151.170;2022-12-07T06:19:47;5.28;;;2.65;;
16426;SDS011;8322;-33.900;151.170;2022-12-07T06:22:16;3.15;;;1.83;;
16426;SDS011;8322;-33.900;151.170;2022-12-07T06:24:46;2.83;;;1.20;;
16426;SDS011;8322;-33.900;151.170;2022-12-07T06:27:15;13.38;;;7.22;;
16426;SDS011;8322;-33.900;151.170;2022-12-07T06:29:45;6.47;;;2.88;;
16426;SDS011;8322;-33.900;151.170;2022-12-07T06:32:15;4.20;;;2.38;;
16426;SDS011;8322;-33.900;151.170;2022-12-07T06:34:46;3.30;;;1.60;;
16426;SDS011;8322;-33.900;151.170;2022-12-07T06:37:16;6.10;;;2.20;;
16426;SDS011;8322;-33.900;151.170;2022-12-07T06:39:45;4.53;;;2.90;;
16426;SDS011;8322;-33.900;151.170;2022-12-07T06:42:15;7.68;;;4.00;;
16426;SDS011;8322;-33.900;151.170;2022-12-07T06:44:45;9.25;;;4.72;;
16426;SDS011;8322;-33.900;151.170;2022-12-07T06:47:15;5.35;;;2.47;;
16426;SDS011;8322;-33.900;151.170;2022-12-07T06:49:46;5.63;;;2.30;;
16426;SDS011;8322;-33.900;151.170;2022-12-07T06:52:15;5.25;;;2.33;;
16426;SDS011;8322;-33.900;151.170;2022-12-07T06:54:45;6.65;;;3.60;;
16426;SDS011;8322;-33.900;151.170;2022-12-07T06:57:15;7.38;;;3.92;;
16426;SDS011;8322;-33.900;151.170;2022-12-07T06:59:46;4.25;;;1.92;;
16426;SDS011;8322;-33.900;151.170;2022-12-07T07:02:15;11.00;;;6.18;;
16426;SDS011;8322;-33.900;151.170;2022-12-07T07:04:47;12.88;;;8.10;;
16426;SDS011;8322;-33.900;151.170;2022-12-07T07:07:16;9.23;;;4.30;;
16426;SDS011;8322;-33.900;151.170;2022-12-07T07:09:46;13.30;;;6.10;;
16426;SDS011;8322;-33.900;151.170;2022-12-07T07:12:15;6.38;;;2.58;;
16426;SDS011;8322;-33.900;151.170;2022-12-07T07:14:45;5.20;;;2.60;;
16426;SDS011;8322;-33.900;151.170;2022-12-07T07:17:15;10.75;;;7.25;;
16426;SDS011;8322;-33.900;151.170;2022-12-07T07:19:46;8.88;;;3.80;;
16426;SDS011;8322;-33.900;151.170;2022-12-07T07:22:16;7.18;;;3.38;;
16426;SDS011;8322;-33.900;151.170;2022-12-07T07:24:46;3.47;;;2.00;;
16426;SDS011;8322;-33.900;151.170;2022-12-07T07:27:15;5.38;;;2.33;;
16426;SDS011;8322;-33.900;151.170;2022-12-07T07:29:45;3.45;;;2.72;;
16426;SDS011;8322;-33.900;151.170;2022-12-07T07:32:15;5.05;;;3.30;;
16426;SDS011;8322;-33.900;151.170;2022-12-07T07:34:47;5.05;;;3.50;;
16426;SDS011;8322;-33.900;151.170;2022-12-07T07:37:17;13.38;;;6.90;;
16426;SDS011;8322;-33.900;151.170;2022-12-07T07:39:47;7.63;;;4.70;;
16426;SDS011;8322;-33.900;151.170;2022-12-07T07:42:16;5.03;;;2.80;;
16426;SDS011;8322;-33.900;151.170;2022-12-07T07:44:46;4.45;;;2.50;;
16426;SDS011;8322;-33.900;151.170;2022-12-07T07:47:16;2.33;;;1.63;;
16426;SDS011;8322;-33.900;151.170;2022-12-07T07:49:47;4.35;;;3.22;;
16426;SDS011;8322;-33.900;151.170;2022-12-07T07:52:17;5.15;;;3.30;;
16426;SDS011;8322;-33.900;151.170;2022-12-07T07:54:46;6.95;;;4.70;;
16426;SDS011;8322;-33.900;151.170;2022-12-07T07:57:16;4.22;;;2.72;;
16426;SDS011;8322;-33.900;151.170;2022-12-07T07:59:46;4.95;;;2.92;;
16426;SDS011;8322;-33.900;151.170;2022-12-07T08:02:16;5.25;;;2.92;;
16426;SDS011;8322;-33.900;151.170;2022-12-07T08:04:48;10.02;;;5.75;;
16426;SDS011;8322;-33.900;151.170;2022-12-07T08:07:18;5.95;;;3.55;;
16426;SDS011;8322;-33.900;151.170;2022-12-07T08:09:47;4.85;;;2.20;;
16426;SDS011;8322;-33.900;151.170;2022-12-07T08:12:18;4.20;;;3.63;;
16426;SDS011;8322;-33.900;151.170;2022-12-07T08:14:48;5.47;;;3.53;;
16426;SDS011;8322;-33.900;151.170;2022-12-07T08:17:17;6.13;;;3.30;;
16426;SDS011;8322;-33.900;151.170;2022-12-07T08:19:49;7.15;;;4.82;;
16426;SDS011;8322;-33.900;151.170;2022-12-07T08:22:18;4.75;;;2.30;;
16426;SDS011;8322;-33.900;151.170;2022-12-07T08:24:48;5.10;;;2.40;;
16426;SDS011;8322;-33.900;151.170;2022-12-07T08:27:18;11.07;;;6.05;;
16426;SDS011;8322;-33.900;151.170;2022-12-07T08:29:49;11.80;;;6.60;;
16426;SDS011;8322;-33.900;151.170;2022-12-07T08:32:19;16.50;;;11.73;;
16426;SDS011;8322;-33.900;151.170;2022-12-07T08:34:50;6.65;;;4.10;;
16426;SDS011;8322;-33.900;151.170;2022-12-07T08:37:21;7.80;;;4.43;;
16426;SDS011;8322;-33.900;151.170;2022-12-07T08:39:50;5.75;;;3.78;;
16426;SDS011;8322;-33.900;151.170;2022-12-07T08:42:20;7.88;;;5.07;;
16426;SDS011;8322;-33.900;151.170;2022-12-07T08:44:55;12.55;;;7.03;;
16426;SDS011;8322;-33.900;151.170;2022-12-07T08:47:25;8.85;;;6.35;;
16426;SDS011;8322;-33.900;151.170;2022-12-07T08:49:57;7.97;;;5.05;;
16426;SDS011;8322;-33.900;151.170;2022-12-07T08:52:29;10.85;;;6.20;;
16426;SDS011;8322;-33.900;151.170;2022-12-07T08:54:59;7.03;;;3.80;;
16426;SDS011;8322;-33.900;151.170;2022-12-07T08:57:29;7.00;;;4.00;;
16426;SDS011;8322;-33.900;151.170;2022-12-07T08:59:59;5.82;;;3.80;;
16426;SDS011;8322;-33.900;151.170;2022-12-07T09:02:29;7.88;;;4.90;;
16426;SDS011;8322;-33.900;151.170;2022-12-07T09:05:01;6.38;;;3.63;;
16426;SDS011;8322;-33.900;151.170;2022-12-07T09:07:32;13.10;;;8.23;;
16426;SDS011;8322;-33.900;151.170;2022-12-07T09:10:03;13.73;;;9.55;;
16426;SDS011;8322;-33.900;151.170;2022-12-07T09:12:33;14.20;;;8.70;;
16426;SDS011;8322;-33.900;151.170;2022-12-07T09:15:03;11.02;;;6.15;;
16426;SDS011;8322;-33.900;151.170;2022-12-07T09:17:34;11.23;;;6.18;;
16426;SDS011;8322;-33.900;151.170;2022-12-07T09:20:11;14.52;;;7.72;;
16426;SDS011;8322;-33.900;151.170;2022-12-07T09:22:42;9.90;;;5.97;;
16426;SDS011;8322;-33.900;151.170;2022-12-07T09:25:12;11.90;;;7.03;;
16426;SDS011;8322;-33.900;151.170;2022-12-07T09:27:41;16.35;;;8.95;;
16426;SDS011;8322;-33.900;151.170;2022-12-07T09:30:11;9.63;;;6.40;;
16426;SDS011;8322;-33.900;151.170;2022-12-07T09:32:41;7.25;;;4.35;;
16426;SDS011;8322;-33.900;151.170;2022-12-07T09:35:12;4.55;;;3.00;;
16426;SDS011;8322;-33.900;151.170;2022-12-07T09:37:42;5.95;;;3.00;;
16426;SDS011;8322;-33.900;151.170;2022-12-07T09:40:12;5.25;;;2.00;;
16426;SDS011;8322;-33.900;151.170;2022-12-07T09:42:43;2.35;;;1.50;;
16426;SDS011;8322;-33.900;151.170;2022-12-07T09:45:13;3.90;;;1.92;;
16426;SDS011;8322;-33.900;151.170;2022-12-07T09:47:44;2.42;;;1.85;;
16426;SDS011;8322;-33.900;151.170;2022-12-07T09:50:16;2.45;;;1.58;;
16426;SDS011;8322;-33.900;151.170;2022-12-07T09:52:46;2.53;;;1.73;;
16426;SDS011;8322;-33.900;151.170;2022-12-07T09:55:19;2.97;;;1.67;;
16426;SDS011;8322;-33.900;151.170;2022-12-07T09:57:49;1.70;;;1.20;;
16426;SDS011;8322;-33.900;151.170;2022-12-07T10:00:19;2.83;;;0.90;;
16426;SDS011;8322;-33.900;151.170;2022-12-07T10:02:50;2.17;;;1.60;;
16426;SDS011;8322;-33.900;151.170;2022-12-07T10:05:24;2.10;;;1.30;;
16426;SDS011;8322;-33.900;151.170;2022-12-07T10:07:56;2.90;;;1.40;;
16426;SDS011;8322;-33.900;151.170;2022-12-07T10:10:26;3.45;;;1.23;;
16426;SDS011;8322;-33.900;151.170;2022-12-07T10:12:57;2.17;;;1.20;;
16426;SDS011;8322;-33.900;151.170;2022-12-07T10:15:44;2.67;;;1.38;;
16426;SDS011;8322;-33.900;151.170;2022-12-07T10:18:19;2.10;;;1.33;;
16426;SDS011;8322;-33.900;151.170;2022-12-07T10:20:59;1.63;;;1.15;;
16426;SDS011;8322;-33.900;151.170;2022-12-07T10:23:29;1.60;;;1.05;;
16426;SDS011;8322;-33.900;151.170;2022-12-07T10:25:58;2.92;;;1.35;;
16426;SDS011;8322;-33.900;151.170;2022-12-07T10:28:33;1.75;;;1.10;;
16426;SDS011;8322;-33.900;151.170;2022-12-07T10:31:15;5.18;;;2.30;;
16426;SDS011;8322;-33.900;151.170;2022-12-07T10:33:48;5.45;;;2.13;;
16426;SDS011;8322;-33.900;151.170;2022-12-07T10:36:21;2.58;;;1.23;;
16426;SDS011;8322;-33.900;151.170;2022-12-07T10:38:52;1.88;;;1.30;;
16426;SDS011;8322;-33.900;151.170;2022-12-07T10:41:22;1.77;;;1.00;;
16426;SDS011;8322;-33.900;151.170;2022-12-07T10:43:52;3.00;;;1.55;;
16426;SDS011;8322;-33.900;151.170;2022-12-07T10:46:28;2.55;;;1.10;;
16426;SDS011;8322;-33.900;151.170;2022-12-07T10:49:01;2.70;;;1.20;;
16426;SDS011;8322;-33.900;151.170;2022-12-07T10:51:35;1.65;;;1.13;;
16426;SDS011;8322;-33.900;151.170;2022-12-07T10:54:09;3.42;;;1.20;;
16426;SDS011;8322;-33.900;151.170;2022-12-07T10:59:28;2.40;;;1.15;;
16426;SDS011;8322;-33.900;151.170;2022-12-07T11:02:09;2.70;;;1.10;;
16426;SDS011;8322;-33.900;151.170;2022-12-07T11:04:48;1.38;;;1.10;;
16426;SDS011;8322;-33.900;151.170;2022-12-07T11:07:28;3.15;;;1.27;;
16426;SDS011;8322;-33.900;151.170;2022-12-07T11:10:05;1.63;;;0.80;;
16426;SDS011;8322;-33.900;151.170;2022-12-07T11:12:41;2.20;;;1.35;;
16426;SDS011;8322;-33.900;151.170;2022-12-07T11:15:18;4.05;;;1.40;;
16426;SDS011;8322;-33.900;151.170;2022-12-07T11:17:50;1.25;;;0.93;;
16426;SDS011;8322;-33.900;151.170;2022-12-07T11:20:27;3.53;;;0.98;;
16426;SDS011;8322;-33.900;151.170;2022-12-07T11:23:04;1.85;;;0.98;;
16426;SDS011;8322;-33.900;151.170;2022-12-07T11:25:39;1.45;;;0.90;;
16426;SDS011;8322;-33.900;151.170;2022-12-07T11:28:18;2.45;;;1.20;;
16426;SDS011;8322;-33.900;151.170;2022-12-07T11:30:54;2.00;;;1.20;;
16426;SDS011;8322;-33.900;151.170;2022-12-07T11:33:27;1.67;;;0.90;;
16426;SDS011;8322;-33.900;151.170;2022-12-07T11:36:02;2.85;;;0.95;;
16426;SDS011;8322;-33.900;151.170;2022-12-07T11:38:37;4.45;;;1.63;;
16426;SDS011;8322;-33.900;151.170;2022-12-07T11:41:08;3.25;;;1.90;;
16426;SDS011;8322;-33.900;151.170;2022-12-07T11:43:45;2.28;;;1.20;;
16426;SDS011;8322;-33.900;151.170;2022-12-07T11:46:18;1.50;;;0.98;;
16426;SDS011;8322;-33.900;151.170;2022-12-07T11:48:50;3.10;;;1.20;;
16426;SDS011;8322;-33.900;151.170;2022-12-07T11:51:21;1.85;;;0.80;;
16426;SDS011;8322;-33.900;151.170;2022-12-07T11:53:54;2.40;;;1.05;;
16426;SDS011;8322;-33.900;151.170;2022-12-07T11:56:25;1.50;;;1.10;;
16426;SDS011;8322;-33.900;151.170;2022-12-07T11:58:57;2.10;;;0.60;;
16426;SDS011;8322;-33.900;151.170;2022-12-07T12:01:34;2.65;;;0.90;;
16426;SDS011;8322;-33.900;151.170;2022-12-07T12:04:06;2.35;;;0.77;;
16426;SDS011;8322;-33.900;151.170;2022-12-07T12:06:36;1.23;;;0.80;;
16426;SDS011;8322;-33.900;151.170;2022-12-07T12:09:11;0.80;;;0.75;;
16426;SDS011;8322;-33.900;151.170;2022-12-07T12:11:47;1.85;;;1.10;;
16426;SDS011;8322;-33.900;151.170;2022-12-07T12:14:30;1.92;;;0.90;;
16426;SDS011;8322;-33.900;151.170;2022-12-07T12:17:20;1.27;;;0.88;;
16426;SDS011;8322;-33.900;151.170;2022-12-07T12:19:58;1.23;;;0.60;;
16426;SDS011;8322;-33.900;151.170;2022-12-07T12:22:32;0.82;;;0.57;;
16426;SDS011;8322;-33.900;151.170;2022-12-07T12:25:05;1.00;;;0.70;;
16426;SDS011;8322;-33.900;151.170;2022-12-07T12:27:36;1.52;;;0.63;;
16426;SDS011;8322;-33.900;151.170;2022-12-07T12:30:23;1.25;;;0.73;;
16426;SDS011;8322;-33.900;151.170;2022-12-07T12:32:54;0.85;;;0.70;;
16426;SDS011;8322;-33.900;151.170;2022-12-07T12:35:30;1.92;;;0.70;;
16426;SDS011;8322;-33.900;151.170;2022-12-07T12:40:46;1.40;;;0.70;;
16426;SDS011;8322;-33.900;151.170;2022-12-07T12:48:50;0.60;;;0.60;;
16426;SDS011;8322;-33.900;151.170;2022-12-07T12:51:38;1.20;;;0.70;;
16426;SDS011;8322;-33.900;151.170;2022-12-07T12:54:11;1.60;;;0.88;;
16426;SDS011;8322;-33.900;151.170;2022-12-07T12:56:46;2.75;;;0.90;;
16426;SDS011;8322;-33.900;151.170;2022-12-07T12:59:21;1.00;;;0.80;;
16426;SDS011;8322;-33.900;151.170;2022-12-07T13:01:52;2.38;;;0.80;;
16426;SDS011;8322;-33.900;151.170;2022-12-07T13:04:27;0.80;;;0.75;;
16426;SDS011;8322;-33.900;151.170;2022-12-07T13:06:57;0.65;;;0.60;;
16426;SDS011;8322;-33.900;151.170;2022-12-07T13:09:27;2.22;;;0.75;;
16426;SDS011;8322;-33.900;151.170;2022-12-07T13:12:03;1.98;;;0.80;;
16426;SDS011;8322;-33.900;151.170;2022-12-07T13:14:51;1.20;;;0.80;;
16426;SDS011;8322;-33.900;151.170;2022-12-07T13:20:08;1.88;;;1.05;;
16426;SDS011;8322;-33.900;151.170;2022-12-07T13:22:51;2.78;;;0.88;;
16426;SDS011;8322;-33.900;151.170;2022-12-07T13:25:31;1.92;;;0.73;;
16426;SDS011;8322;-33.900;151.170;2022-12-07T13:28:07;2.85;;;1.10;;
16426;SDS011;8322;-33.900;151.170;2022-12-07T13:30:40;2.33;;;1.00;;
16426;SDS011;8322;-33.900;151.170;2022-12-07T13:33:12;3.33;;;1.30;;
16426;SDS011;8322;-33.900;151.170;2022-12-07T13:35:43;5.15;;;1.35;;
16426;SDS011;8322;-33.900;151.170;2022-12-07T13:38:18;3.88;;;1.23;;
16426;SDS011;8322;-33.900;151.170;2022-12-07T13:41:11;2.53;;;1.02;;
16426;SDS011;8322;-33.900;151.170;2022-12-07T13:43:48;2.40;;;0.80;;
16426;SDS011;8322;-33.900;151.170;2022-12-07T13:46:18;2.20;;;1.00;;
16426;SDS011;8322;-33.900;151.170;2022-12-07T13:48:49;2.05;;;0.93;;
16426;SDS011;8322;-33.900;151.170;2022-12-07T13:51:20;2.03;;;1.10;;
16426;SDS011;8322;-33.900;151.170;2022-12-07T13:53:50;2.00;;;1.10;;
16426;SDS011;8322;-33.900;151.170;2022-12-07T13:56:25;1.77;;;0.90;;
16426;SDS011;8322;-33.900;151.170;2022-12-07T13:58:58;2.50;;;1.10;;
16426;SDS011;8322;-33.900;151.170;2022-12-07T14:01:28;2.30;;;0.85;;
16426;SDS011;8322;-33.900;151.170;2022-12-07T14:06:47;1.27;;;0.82;;
16426;SDS011;8322;-33.900;151.170;2022-12-07T14:09:17;1.75;;;0.85;;
16426;SDS011;8322;-33.900;151.170;2022-12-07T14:11:48;1.17;;;0.80;;
16426;SDS011;8322;-33.900;151.170;2022-12-07T14:14:20;2.05;;;0.70;;
16426;SDS011;8322;-33.900;151.170;2022-12-07T14:16:57;1.52;;;0.93;;
16426;SDS011;8322;-33.900;151.170;2022-12-07T14:19:43;1.63;;;0.70;;
16426;SDS011;8322;-33.900;151.170;2022-12-07T14:22:20;1.42;;;0.95;;
16426;SDS011;8322;-33.900;151.170;2022-12-07T14:24:51;2.85;;;0.80;;
16426;SDS011;8322;-33.900;151.170;2022-12-07T14:27:21;1.92;;;0.77;;
16426;SDS011;8322;-33.900;151.170;2022-12-07T14:29:58;1.38;;;0.80;;
16426;SDS011;8322;-33.900;151.170;2022-12-07T14:32:27;0.88;;;0.60;;
16426;SDS011;8322;-33.900;151.170;2022-12-07T14:34:58;2.15;;;0.70;;
16426;SDS011;8322;-33.900;151.170;2022-12-07T14:37:29;1.05;;;0.85;;
16426;SDS011;8322;-33.900;151.170;2022-12-07T14:39:59;1.58;;;0.80;;
16426;SDS011;8322;-33.900;151.170;2022-12-07T14:42:28;1.50;;;0.70;;
16426;SDS011;8322;-33.900;151.170;2022-12-07T14:45:01;2.63;;;0.70;;
16426;SDS011;8322;-33.900;151.170;2022-12-07T14:47:41;2.03;;;0.90;;
16426;SDS011;8322;-33.900;151.170;2022-12-07T14:50:12;1.08;;;0.70;;
16426;SDS011;8322;-33.900;151.170;2022-12-07T14:52:42;1.15;;;0.60;;
16426;SDS011;8322;-33.900;151.170;2022-12-07T14:55:13;0.77;;;0.60;;
16426;SDS011;8322;-33.900;151.170;2022-12-07T14:57:43;2.15;;;0.70;;
16426;SDS011;8322;-33.900;151.170;2022-12-07T15:00:16;1.13;;;0.60;;
16426;SDS011;8322;-33.900;151.170;2022-12-07T15:02:46;0.90;;;0.52;;